createdAt,value
2023-02-14T00:06:02.460Z,3583
2023-02-14T00:21:02.421Z,3583
2023-02-14T00:36:02.349Z,3581
2023-02-14T00:51:02.363Z,3583
2023-02-14T01:06:02.341Z,3581
2023-02-14T01:21:02.344Z,3581
2023-02-14T01:36:02.303Z,3581
2023-02-14T01:51:02.463Z,3578
2023-02-14T02:06:02.277Z,3578
2023-02-14T02:21:02.276Z,3581
2023-02-14T02:36:02.308Z,3581
2023-02-14T02:51:02.467Z,3578
2023-02-14T03:06:02.257Z,3578
2023-02-14T03:21:02.564Z,3578
2023-02-14T03:36:02.273Z,3578
2023-02-14T03:51:02.428Z,3578
2023-02-14T04:06:02.200Z,3578
2023-02-14T04:21:02.398Z,3578
2023-02-14T04:36:02.193Z,3578
2023-02-14T04:51:02.437Z,3575
2023-02-14T05:06:02.171Z,3578
2023-02-14T05:21:02.439Z,3575
2023-02-14T05:36:02.140Z,3578
2023-02-14T05:51:02.241Z,3575
2023-02-14T06:06:02.148Z,3573
2023-02-14T06:21:02.434Z,3575
2023-02-14T06:36:02.111Z,3573
2023-02-14T06:51:02.445Z,3573
2023-02-14T07:06:02.109Z,3575
2023-02-14T07:21:02.636Z,3575
2023-02-14T07:36:02.094Z,3575
2023-02-14T07:51:02.656Z,3578
2023-02-14T08:06:02.087Z,3583
2023-02-14T08:21:02.415Z,3583
2023-02-14T08:36:02.015Z,3588
2023-02-14T08:51:02.293Z,3591
2023-02-14T09:06:01.998Z,3591
2023-02-14T09:21:02.404Z,3588
2023-02-14T09:36:01.955Z,3586
2023-02-14T09:51:02.296Z,3583
2023-02-14T10:06:01.921Z,3586
2023-02-14T10:21:02.398Z,3586
2023-02-14T10:36:01.918Z,3588
2023-02-14T10:51:02.301Z,3591
2023-02-14T11:06:01.860Z,3593
2023-02-14T11:21:01.868Z,3593
2023-02-14T11:36:01.835Z,3593
2023-02-14T11:51:02.003Z,3596
2023-02-14T12:06:01.784Z,3596
2023-02-14T12:21:02.098Z,3593
2023-02-14T12:36:01.795Z,3599
2023-02-14T12:51:02.221Z,3599
2023-02-14T13:06:01.710Z,3599
2023-02-14T13:21:02.053Z,3596
2023-02-14T13:36:01.939Z,3599
2023-02-14T13:51:01.927Z,3599
2023-02-14T14:06:02.033Z,3599
2023-02-14T14:21:01.584Z,3601
2023-02-14T14:36:01.914Z,3599
2023-02-14T14:51:01.588Z,3601
2023-02-14T15:06:01.861Z,3601
2023-02-14T15:21:01.940Z,3604
2023-02-14T15:36:01.478Z,3601
2023-02-14T15:51:01.752Z,3601
2023-02-14T16:06:01.416Z,3604
2023-02-14T16:21:01.801Z,3601
2023-02-14T16:36:01.367Z,3601
2023-02-14T16:51:01.648Z,3601
2023-02-14T17:06:01.339Z,3601
2023-02-14T17:21:01.612Z,3599
2023-02-14T17:36:01.399Z,3599
2023-02-14T17:51:01.673Z,3596
2023-02-14T18:06:01.254Z,3599
2023-02-14T18:21:01.594Z,3596
2023-02-14T18:36:01.204Z,3596
2023-02-14T18:51:01.606Z,3593
2023-02-14T19:06:01.168Z,3593
2023-02-14T19:21:01.450Z,3593
2023-02-14T19:36:01.151Z,3593
2023-02-14T19:51:01.653Z,3593
2023-02-14T20:06:01.120Z,3593
2023-02-14T20:21:01.488Z,3591
2023-02-14T20:36:01.068Z,3588
2023-02-14T20:51:01.395Z,3588
2023-02-14T21:06:01.055Z,3588
2023-02-14T21:21:01.518Z,3588
2023-02-14T21:36:01.016Z,3588
2023-02-14T21:51:01.368Z,3586
2023-02-14T22:06:01.006Z,3586
2023-02-14T22:21:01.236Z,3588
2023-02-14T22:36:01.178Z,3588
2023-02-14T22:51:00.976Z,3588
2023-02-14T23:06:01.186Z,3588
2023-02-14T23:21:00.970Z,3586
2023-02-14T23:36:01.246Z,3586
2023-02-14T23:51:00.921Z,3583
